createdAt,value
2022-10-08T00:04:58.196Z,8.8
2022-10-08T00:11:18.281Z,8.74
2022-10-08T00:17:41.284Z,8.7
2022-10-08T00:24:01.146Z,8.68
2022-10-08T00:30:24.148Z,8.61
2022-10-08T00:36:44.167Z,8.53
2022-10-08T00:43:07.232Z,8.45
2022-10-08T00:49:27.166Z,8.41
2022-10-08T00:55:50.227Z,8.37
2022-10-08T01:02:10.188Z,8.29
2022-10-08T01:08:33.209Z,8.26
2022-10-08T01:14:53.227Z,8.28
2022-10-08T01:21:16.213Z,8.23
2022-10-08T01:27:36.191Z,8.21
2022-10-08T01:33:59.291Z,8.19
2022-10-08T01:40:19.183Z,8.17
2022-10-08T01:46:42.220Z,8.15
2022-10-08T01:53:02.291Z,8.14
2022-10-08T01:59:25.176Z,8.13
2022-10-08T02:05:45.230Z,8.1
2022-10-08T02:12:08.233Z,8.01
2022-10-08T02:18:28.220Z,7.93
2022-10-08T02:24:51.231Z,7.94
2022-10-08T02:31:11.234Z,7.91
2022-10-08T02:37:34.224Z,7.86
2022-10-08T02:43:54.305Z,7.85
2022-10-08T02:50:17.251Z,7.79
2022-10-08T02:56:37.157Z,7.79
2022-10-08T03:03:00.214Z,7.72
2022-10-08T03:09:20.266Z,7.72
2022-10-08T03:33:02.075Z,7.72
2022-10-08T03:39:25.154Z,7.75
2022-10-08T03:45:45.192Z,7.76
2022-10-08T03:52:08.200Z,7.82
2022-10-08T03:58:28.151Z,7.88
2022-10-08T04:04:51.223Z,7.93
2022-10-08T04:11:11.277Z,8.04
2022-10-08T04:17:34.213Z,8.12
2022-10-08T04:23:54.152Z,8.19
2022-10-08T04:30:17.194Z,8.27
2022-10-08T04:36:37.314Z,8.32
2022-10-08T04:43:00.192Z,8.33
2022-10-08T04:49:20.239Z,8.39
2022-10-08T04:55:43.182Z,8.47
2022-10-08T05:02:03.202Z,8.55
2022-10-08T05:08:26.268Z,8.62
2022-10-08T05:14:46.212Z,8.71
2022-10-08T05:21:09.211Z,8.85
2022-10-08T05:27:29.181Z,8.97
2022-10-08T05:33:52.200Z,9.08
2022-10-08T05:40:12.236Z,9.18
2022-10-08T05:46:35.249Z,9.26
2022-10-08T05:52:55.280Z,9.35
2022-10-08T05:59:18.238Z,9.46
2022-10-08T06:05:38.222Z,9.56
2022-10-08T06:12:01.181Z,9.7
2022-10-08T06:18:21.160Z,9.83
2022-10-08T06:24:44.199Z,9.92
2022-10-08T06:31:04.310Z,10.03
2022-10-08T06:37:27.169Z,10.19
2022-10-08T06:43:47.243Z,10.34
2022-10-08T06:50:10.152Z,10.47
2022-10-08T06:56:30.213Z,10.63
2022-10-08T07:02:53.191Z,10.78
2022-10-08T07:09:13.247Z,10.96
2022-10-08T07:15:36.212Z,11.17
2022-10-08T07:22:00.481Z,11.39
2022-10-08T07:28:19.303Z,11.58
2022-10-08T07:34:39.276Z,11.76
2022-10-08T07:41:02.194Z,11.9
2022-10-08T07:47:22.187Z,12
2022-10-08T07:53:45.210Z,12.08
2022-10-08T08:00:05.224Z,12.16
2022-10-08T08:06:28.161Z,12.27
2022-10-08T08:12:48.483Z,12.35
2022-10-08T08:19:11.239Z,12.49
2022-10-08T08:42:17.705Z,13.43
2022-10-08T08:48:37.144Z,13.58
2022-10-08T08:55:00.204Z,13.84
2022-10-08T09:01:20.280Z,14
2022-10-08T09:07:43.221Z,14.12
2022-10-08T09:14:03.242Z,14.16
2022-10-08T09:20:26.193Z,14.21
2022-10-08T09:26:46.222Z,14.24
2022-10-08T09:33:09.214Z,14.34
2022-10-08T09:39:29.296Z,14.48
2022-10-08T09:45:52.194Z,14.76
2022-10-08T09:52:16.162Z,15.12
2022-10-08T09:58:35.228Z,15.26
2022-10-08T10:04:55.156Z,15.26
2022-10-08T10:11:18.192Z,15.41
2022-10-08T10:17:38.194Z,15.21
2022-10-08T10:24:01.159Z,15.17
2022-10-08T10:30:21.164Z,15.38
2022-10-08T10:36:44.218Z,15.96
2022-10-08T10:43:04.185Z,16.59
2022-10-08T10:49:27.187Z,16.37
2022-10-08T10:55:49.386Z,16.05
2022-10-08T11:02:10.236Z,16.12
2022-10-08T11:08:30.179Z,16.02
2022-10-08T11:14:53.249Z,16.29
2022-10-08T11:21:13.161Z,16.29
2022-10-08T11:27:36.196Z,16.36
2022-10-08T11:33:56.233Z,16.21
2022-10-08T11:40:19.166Z,15.99
2022-10-08T11:46:39.263Z,15.71
2022-10-08T11:53:02.197Z,15.7
2022-10-08T11:59:22.157Z,16.4
2022-10-08T12:05:49.409Z,17.01
2022-10-08T12:12:05.166Z,17.45
2022-10-08T12:18:28.184Z,17.83
2022-10-08T12:24:50.460Z,17.78
2022-10-08T12:31:11.187Z,17.41
2022-10-08T12:37:31.235Z,17.49
2022-10-08T12:43:54.150Z,17.72
2022-10-08T12:50:14.201Z,17.99
2022-10-08T12:56:37.165Z,18.05
2022-10-08T13:02:57.221Z,17.65
2022-10-08T13:09:20.236Z,17.07
2022-10-08T13:15:40.178Z,16.79
2022-10-08T13:22:03.191Z,16.55
2022-10-08T13:28:36.356Z,16.47
2022-10-08T13:34:46.220Z,16.68
2022-10-08T13:57:33.699Z,16.54
2022-10-08T14:03:53.201Z,16.37
2022-10-08T14:10:16.239Z,16.25
2022-10-08T14:16:36.282Z,16.3
2022-10-08T14:22:59.145Z,16.44
2022-10-08T14:29:19.197Z,16.56
2022-10-08T14:35:42.222Z,16.63
2022-10-08T14:42:02.191Z,16.67
2022-10-08T14:48:25.188Z,16.65
2022-10-08T14:54:45.248Z,16.63
2022-10-08T15:01:08.184Z,16.6
2022-10-08T15:07:28.171Z,16.5
2022-10-08T15:13:51.265Z,16.4
2022-10-08T15:20:11.214Z,16.29
2022-10-08T15:26:34.255Z,16.23
2022-10-08T15:32:54.196Z,16.14
2022-10-08T15:39:17.157Z,16.04
2022-10-08T15:45:37.281Z,15.97
2022-10-08T15:52:00.178Z,15.87
2022-10-08T15:58:38.986Z,15.78
2022-10-08T16:04:43.164Z,15.7
2022-10-08T16:11:03.755Z,15.62
2022-10-08T16:17:26.481Z,15.55
2022-10-08T16:23:46.160Z,15.44
2022-10-08T16:30:09.222Z,15.31
2022-10-08T16:36:29.164Z,15.18
2022-10-08T16:42:52.203Z,15.03
2022-10-08T16:49:12.179Z,14.88
2022-10-08T16:55:35.214Z,14.73
2022-10-08T17:01:55.524Z,14.58
2022-10-08T17:08:18.476Z,14.39
2022-10-08T17:14:38.208Z,14.23
2022-10-08T17:21:01.182Z,14.07
2022-10-08T17:27:21.237Z,13.8
2022-10-08T17:33:44.198Z,13.41
2022-10-08T17:40:04.204Z,12.96
2022-10-08T17:46:27.317Z,12.61
2022-10-08T17:52:48.641Z,12.31
2022-10-08T17:59:11.160Z,12.08
2022-10-08T18:05:31.268Z,11.92
2022-10-08T18:11:54.180Z,11.78
2022-10-08T18:18:14.183Z,11.56
2022-10-08T18:24:37.224Z,11.46
2022-10-08T18:30:57.175Z,11.34
2022-10-08T18:54:57.087Z,10.69
2022-10-08T19:01:20.314Z,10.52
2022-10-08T19:07:40.172Z,10.42
2022-10-08T19:14:03.200Z,10.26
2022-10-08T19:20:23.219Z,10.15
2022-10-08T19:26:46.317Z,10.09
2022-10-08T19:33:06.201Z,10.04
2022-10-08T19:39:29.156Z,9.98
2022-10-08T19:45:49.158Z,9.91
2022-10-08T19:52:12.262Z,9.82
2022-10-08T19:58:32.171Z,9.73
2022-10-08T20:04:55.189Z,9.65
2022-10-08T20:11:15.231Z,9.61
2022-10-08T20:17:38.172Z,9.62
2022-10-08T20:23:58.195Z,9.61
2022-10-08T20:30:21.234Z,9.58
2022-10-08T20:36:41.146Z,9.51
2022-10-08T20:43:04.194Z,9.36
2022-10-08T20:49:24.158Z,9.19
2022-10-08T20:55:47.199Z,9.15
2022-10-08T21:02:07.277Z,9.09
2022-10-08T21:08:30.206Z,9.03
2022-10-08T21:14:50.266Z,8.96
2022-10-08T21:21:13.218Z,8.88
2022-10-08T21:27:33.268Z,8.83
2022-10-08T21:33:56.237Z,8.78
2022-10-08T21:40:16.232Z,8.72
2022-10-08T21:46:39.337Z,8.66
2022-10-08T21:52:59.182Z,8.6
2022-10-08T21:59:22.170Z,8.5
2022-10-08T22:22:19.185Z,7.95
2022-10-08T22:28:39.218Z,7.9
2022-10-08T22:35:02.164Z,7.76
2022-10-08T22:41:22.283Z,7.74
2022-10-08T22:47:45.230Z,7.78
2022-10-08T22:54:05.204Z,7.79
2022-10-08T23:00:28.199Z,7.75
2022-10-08T23:06:48.169Z,7.63
2022-10-08T23:13:11.243Z,7.58
2022-10-08T23:19:31.251Z,7.56
2022-10-08T23:25:54.225Z,7.51
2022-10-08T23:32:14.334Z,7.47
2022-10-08T23:38:37.228Z,7.35
2022-10-08T23:44:57.200Z,7.17
2022-10-08T23:51:20.183Z,7.11
2022-10-08T23:57:40.232Z,7.07
